createdAt,value
2023-04-02T00:00:52.819Z,78.3121
2023-04-02T00:01:54.241Z,78.3063
2023-04-02T00:02:55.730Z,78.2992
2023-04-02T00:03:57.173Z,78.3040
2023-04-02T00:04:58.598Z,78.3231
2023-04-02T00:05:59.964Z,78.3155
2023-04-02T00:07:01.327Z,78.3212
2023-04-02T00:08:02.740Z,78.3296
2023-04-02T00:09:04.116Z,78.2409
2023-04-02T00:10:05.549Z,78.1436
2023-04-02T00:11:06.958Z,78.0650
2023-04-02T00:12:08.339Z,78.0819
2023-04-02T00:13:09.735Z,78.1842
2023-04-02T00:14:11.186Z,78.2839
2023-04-02T00:15:12.635Z,78.3028
2023-04-02T00:16:14.018Z,78.3094
2023-04-02T00:17:15.437Z,78.2980
2023-04-02T00:18:16.902Z,78.2911
2023-04-02T00:19:18.279Z,78.3102
2023-04-02T00:20:19.628Z,78.3358
2023-04-02T00:21:20.970Z,78.3152
2023-04-02T00:22:22.377Z,78.2267
2023-04-02T00:23:23.770Z,78.1000
2023-04-02T00:24:25.199Z,78.1099
2023-04-02T00:25:26.576Z,78.1848
2023-04-02T00:26:28.037Z,78.2468
2023-04-02T00:27:29.363Z,78.2969
2023-04-02T00:28:30.749Z,78.3727
2023-04-02T00:29:32.133Z,78.4843
2023-04-02T00:30:33.508Z,78.6557
2023-04-02T00:31:34.900Z,78.8224
2023-04-02T00:32:36.307Z,78.9955
2023-04-02T00:33:37.742Z,79.1230
2023-04-02T00:34:39.204Z,79.2630
2023-04-02T00:35:40.660Z,79.4519
2023-04-02T00:36:42.171Z,79.6129
2023-04-02T00:37:43.571Z,79.7272
2023-04-02T00:38:46.665Z,79.8927
2023-04-02T00:39:46.425Z,80.0326
2023-04-02T00:40:47.774Z,80.0763
2023-04-02T00:41:49.197Z,80.1339
2023-04-02T00:42:50.607Z,80.2257
2023-04-02T00:43:52.051Z,80.3059
2023-04-02T00:44:53.504Z,80.3425
2023-04-02T00:45:54.923Z,80.4291
2023-04-02T00:46:56.354Z,80.5044
2023-04-02T00:47:57.854Z,80.5597
2023-04-02T00:48:59.241Z,80.6078
2023-04-02T00:50:00.717Z,80.6340
2023-04-02T00:51:02.093Z,80.6695
2023-04-02T00:52:03.531Z,80.7616
2023-04-02T00:53:04.920Z,80.8497
2023-04-02T00:54:06.378Z,80.8777
2023-04-02T00:55:07.793Z,80.9187
2023-04-02T00:56:09.280Z,80.9675
2023-04-02T00:57:10.653Z,81.0032
2023-04-02T00:58:12.131Z,81.0813
2023-04-02T00:59:13.495Z,81.1660
2023-04-02T01:00:14.979Z,81.2377
2023-04-02T01:01:16.395Z,81.2843
2023-04-02T01:02:18.070Z,81.3036
2023-04-02T01:03:19.666Z,81.3058
2023-04-02T01:04:21.515Z,81.3172
2023-04-02T01:05:23.068Z,81.3215
2023-04-02T01:06:24.471Z,81.3189
2023-04-02T01:07:26.112Z,81.3096
2023-04-02T01:08:27.534Z,81.2960
2023-04-02T01:09:28.882Z,81.2938
2023-04-02T01:10:30.343Z,81.2821
2023-04-02T01:11:31.879Z,81.2777
2023-04-02T01:12:33.381Z,81.2811
2023-04-02T01:13:34.782Z,81.3550
2023-04-02T01:14:36.204Z,81.3872
2023-04-02T01:15:38.110Z,81.3984
2023-04-02T01:16:39.782Z,81.4015
2023-04-02T01:17:41.182Z,81.3984
2023-04-02T01:18:42.583Z,81.3978
2023-04-02T01:19:43.938Z,81.3985
2023-04-02T01:20:45.384Z,81.3962
2023-04-02T01:21:46.796Z,81.3914
2023-04-02T01:22:48.256Z,81.4066
2023-04-02T01:23:49.605Z,81.4235
2023-04-02T01:24:50.993Z,81.4308
2023-04-02T01:25:52.449Z,81.4357
2023-04-02T01:26:53.777Z,81.4398
2023-04-02T01:27:55.182Z,81.4372
2023-04-02T01:28:56.575Z,81.4392
2023-04-02T01:29:57.955Z,81.4464
2023-04-02T01:30:59.346Z,81.4531
2023-04-02T01:32:00.791Z,81.4645
2023-04-02T01:33:02.255Z,81.4674
2023-04-02T01:34:03.674Z,81.4723
2023-04-02T01:35:05.039Z,81.4786
2023-04-02T01:36:06.419Z,81.4765
2023-04-02T01:37:07.813Z,81.4611
2023-04-02T01:38:09.205Z,81.4434
2023-04-02T01:39:10.628Z,81.4323
2023-04-02T01:40:12.023Z,81.4106
2023-04-02T01:41:13.407Z,81.3932
2023-04-02T01:42:14.824Z,81.3862
2023-04-02T01:43:16.195Z,81.3754
2023-04-02T01:44:17.553Z,81.3681
2023-04-02T01:45:18.955Z,81.3651
2023-04-02T01:46:20.435Z,81.3583
2023-04-02T01:47:21.768Z,81.3544
2023-04-02T01:48:23.208Z,81.3555
2023-04-02T01:49:24.573Z,81.3567
2023-04-02T01:50:25.977Z,81.3445
2023-04-02T01:51:27.394Z,81.3352
2023-04-02T01:52:28.882Z,81.3203
2023-04-02T01:53:30.222Z,81.3035
2023-04-02T01:54:31.665Z,81.2878
2023-04-02T01:55:33.328Z,81.2714
2023-04-02T01:56:35.179Z,81.2516
2023-04-02T01:57:36.572Z,81.2196
2023-04-02T01:58:37.950Z,81.1632
2023-04-02T01:59:39.369Z,81.0957
2023-04-02T02:00:40.902Z,81.0439
2023-04-02T02:01:42.467Z,81.0081
2023-04-02T02:02:43.918Z,80.9804
2023-04-02T02:03:45.400Z,80.9537
2023-04-02T02:04:46.853Z,80.9281
2023-04-02T02:05:48.218Z,80.9051
2023-04-02T02:06:49.632Z,80.8861
2023-04-02T02:07:51.039Z,80.8586
2023-04-02T02:08:52.440Z,80.8364
2023-04-02T02:09:53.787Z,80.8098
2023-04-02T02:10:55.194Z,80.7960
2023-04-02T02:11:56.564Z,80.7820
2023-04-02T02:12:57.998Z,80.7679
2023-04-02T02:13:59.356Z,80.7459
2023-04-02T02:15:00.814Z,80.7240
2023-04-02T02:16:02.189Z,80.6928
2023-04-02T02:17:03.575Z,80.6678
2023-04-02T02:18:04.927Z,80.6461
2023-04-02T02:19:06.322Z,80.6220
2023-04-02T02:20:07.741Z,80.5928
2023-04-02T02:21:09.114Z,80.5633
2023-04-02T02:22:10.547Z,80.5155
2023-04-02T02:23:11.936Z,80.4645
2023-04-02T02:24:13.414Z,80.4025
2023-04-02T02:25:14.827Z,80.3372
2023-04-02T02:26:16.238Z,80.2792
2023-04-02T02:27:17.587Z,80.2502
2023-04-02T02:28:19.002Z,80.2826
2023-04-02T02:29:20.384Z,80.2823
2023-04-02T02:30:21.770Z,80.2527
2023-04-02T02:31:23.270Z,80.2125
2023-04-02T02:32:24.701Z,80.1867
2023-04-02T02:33:26.079Z,80.1574
2023-04-02T02:34:27.469Z,80.1543
2023-04-02T02:35:28.983Z,80.1431
2023-04-02T02:36:30.364Z,80.1416
2023-04-02T02:37:31.741Z,80.1360
2023-04-02T02:38:33.147Z,80.1145
2023-04-02T02:39:34.635Z,80.1187
2023-04-02T02:40:36.049Z,80.1430
2023-04-02T02:41:37.441Z,80.1640
2023-04-02T02:42:38.832Z,80.2214
2023-04-02T02:43:40.272Z,80.2733
2023-04-02T02:44:41.670Z,80.2937
2023-04-02T02:45:43.071Z,80.3045
2023-04-02T02:46:44.437Z,80.3328
2023-04-02T02:47:45.885Z,80.3542
2023-04-02T02:48:47.217Z,80.3643
2023-04-02T02:49:48.632Z,80.3747
2023-04-02T02:50:50.060Z,80.3769
2023-04-02T02:51:51.441Z,80.3857
2023-04-02T02:52:52.849Z,80.3826
2023-04-02T02:53:54.249Z,80.3814
2023-04-02T02:54:55.917Z,80.3697
2023-04-02T02:55:57.331Z,80.3314
2023-04-02T02:56:58.716Z,80.2960
2023-04-02T02:58:00.142Z,80.2690
2023-04-02T02:59:01.516Z,80.2499
2023-04-02T03:00:02.962Z,80.2339
2023-04-02T03:01:04.402Z,80.2138
2023-04-02T03:02:05.762Z,80.1993
2023-04-02T03:03:07.238Z,80.1837
2023-04-02T03:04:09.000Z,80.1334
2023-04-02T03:05:10.674Z,80.0353
2023-04-02T03:06:12.100Z,79.9364
2023-04-02T03:07:13.485Z,79.8125
2023-04-02T03:08:14.975Z,79.7026
2023-04-02T03:09:16.398Z,79.6732
2023-04-02T03:10:17.816Z,79.6328
2023-04-02T03:11:19.277Z,79.5372
2023-04-02T03:12:20.685Z,79.4659
2023-04-02T03:13:22.066Z,79.4215
2023-04-02T03:14:23.446Z,79.4091
2023-04-02T03:15:24.798Z,79.3901
2023-04-02T03:16:26.297Z,79.3863
2023-04-02T03:17:27.732Z,79.3835
2023-04-02T03:18:29.155Z,79.3780
2023-04-02T03:19:30.566Z,79.3757
2023-04-02T03:20:31.951Z,79.3789
2023-04-02T03:21:33.399Z,79.3822
2023-04-02T03:22:34.776Z,79.3670
2023-04-02T03:23:36.164Z,79.3296
2023-04-02T03:24:37.524Z,79.3029
2023-04-02T03:25:38.979Z,79.2863
2023-04-02T03:26:40.308Z,79.2737
2023-04-02T03:27:41.755Z,79.2560
2023-04-02T03:28:43.135Z,79.2364
2023-04-02T03:29:44.575Z,79.2208
2023-04-02T03:30:46.028Z,79.2104
2023-04-02T03:31:47.585Z,79.1818
2023-04-02T03:32:49.112Z,79.1600
2023-04-02T03:33:50.596Z,79.1413
2023-04-02T03:34:52.059Z,79.0995
2023-04-02T03:35:53.611Z,79.0019
2023-04-02T03:36:55.065Z,78.9222
2023-04-02T03:37:56.547Z,78.9046
2023-04-02T03:38:58.105Z,78.8869
2023-04-02T03:39:59.594Z,78.8605
2023-04-02T03:41:01.173Z,78.8403
2023-04-02T03:42:02.553Z,78.8361
2023-04-02T03:43:04.015Z,78.8348
2023-04-02T03:44:05.514Z,78.8286
2023-04-02T03:45:07.156Z,78.8230
2023-04-02T03:46:08.926Z,78.8020
2023-04-02T03:47:10.381Z,78.7928
2023-04-02T03:48:11.841Z,78.7828
2023-04-02T03:49:13.324Z,78.7678
2023-04-02T03:50:14.796Z,78.7675
2023-04-02T03:51:16.307Z,78.7697
2023-04-02T03:52:17.779Z,78.7732
2023-04-02T03:53:19.242Z,78.7734
2023-04-02T03:54:20.720Z,78.7728
2023-04-02T03:55:22.253Z,78.7740
2023-04-02T03:56:23.636Z,78.7731
2023-04-02T03:57:25.174Z,78.7709
2023-04-02T03:58:26.721Z,78.7735
2023-04-02T03:59:28.283Z,78.7775
2023-04-02T04:00:29.703Z,78.7834
2023-04-02T04:01:31.209Z,78.8039
2023-04-02T04:02:32.652Z,78.8181
2023-04-02T04:03:34.181Z,78.8331
2023-04-02T04:04:35.730Z,78.8482
2023-04-02T04:05:37.456Z,78.8543
2023-04-02T04:06:39.097Z,78.8667
2023-04-02T04:07:40.520Z,78.8768
2023-04-02T04:08:41.949Z,78.8843
2023-04-02T04:09:43.413Z,78.8402
2023-04-02T04:10:44.890Z,78.7736
2023-04-02T04:11:46.346Z,78.6861
2023-04-02T04:12:47.915Z,78.6243
2023-04-02T04:13:49.384Z,78.5775
2023-04-02T04:14:50.851Z,78.5393
2023-04-02T04:15:52.275Z,78.5064
2023-04-02T04:16:54.003Z,78.4436
2023-04-02T04:17:55.950Z,78.3692
2023-04-02T04:18:57.396Z,78.2793
2023-04-02T04:19:58.856Z,78.2350
2023-04-02T04:21:00.396Z,78.1741
2023-04-02T04:22:01.850Z,78.0515
2023-04-02T04:23:03.268Z,77.9267
2023-04-02T04:24:04.863Z,77.8238
2023-04-02T04:25:06.285Z,77.7679
2023-04-02T04:26:07.731Z,77.7431
2023-04-02T04:27:09.182Z,77.7254
2023-04-02T04:28:10.653Z,77.6418
2023-04-02T04:29:12.070Z,77.5650
2023-04-02T04:30:13.641Z,77.5291
2023-04-02T04:31:15.103Z,77.5187
2023-04-02T04:32:16.609Z,77.5190
2023-04-02T04:33:18.246Z,77.5253
2023-04-02T04:34:19.697Z,77.5344
2023-04-02T04:35:21.144Z,77.5466
2023-04-02T04:36:22.586Z,77.5555
2023-04-02T04:37:24.077Z,77.5111
2023-04-02T04:38:25.562Z,77.4800
2023-04-02T04:39:27.154Z,77.4843
2023-04-02T04:40:28.602Z,77.4923
2023-04-02T04:41:30.049Z,77.4969
2023-04-02T04:42:31.491Z,77.5077
2023-04-02T04:43:32.982Z,77.5146
2023-04-02T04:44:34.445Z,77.5113
2023-04-02T04:45:36.221Z,77.5099
2023-04-02T04:46:37.882Z,77.4926
2023-04-02T04:47:39.373Z,77.4805
2023-04-02T04:48:40.813Z,77.4620
2023-04-02T04:49:42.266Z,77.4481
2023-04-02T04:50:43.705Z,77.4118
2023-04-02T04:51:45.179Z,77.3984
2023-04-02T04:52:46.632Z,77.3640
2023-04-02T04:53:48.185Z,77.2430
2023-04-02T04:54:49.663Z,77.2004
2023-04-02T04:55:51.104Z,77.1810
2023-04-02T04:56:52.606Z,77.1628
2023-04-02T04:57:54.040Z,77.1231
2023-04-02T04:58:55.454Z,77.0114
2023-04-02T04:59:56.878Z,76.9229
2023-04-02T05:00:58.321Z,76.7625
2023-04-02T05:01:59.793Z,76.6771
2023-04-02T05:03:01.373Z,76.6367
2023-04-02T05:04:02.791Z,76.6072
2023-04-02T05:05:04.317Z,76.6147
2023-04-02T05:06:05.764Z,76.6335
2023-04-02T05:07:07.235Z,76.6430
2023-04-02T05:08:08.664Z,76.6210
2023-04-02T05:09:10.080Z,76.6148
2023-04-02T05:10:11.563Z,76.6070
2023-04-02T05:11:13.045Z,76.4517
2023-04-02T05:12:14.493Z,76.3888
2023-04-02T05:13:15.913Z,76.3829
2023-04-02T05:14:17.416Z,76.3961
2023-04-02T05:15:18.867Z,76.4200
2023-04-02T05:16:20.383Z,76.4433
2023-04-02T05:17:21.870Z,76.4709
2023-04-02T05:18:23.372Z,76.4747
2023-04-02T05:19:24.824Z,76.4533
2023-04-02T05:20:26.263Z,76.4596
2023-04-02T05:21:27.669Z,76.4634
2023-04-02T05:22:29.109Z,76.4375
2023-04-02T05:23:30.614Z,76.4424
2023-04-02T05:24:31.998Z,76.4577
2023-04-02T05:25:33.669Z,76.4724
2023-04-02T05:26:35.183Z,76.4824
2023-04-02T05:27:36.681Z,76.4914
2023-04-02T05:28:38.132Z,76.4989
2023-04-02T05:29:39.647Z,76.5014
2023-04-02T05:30:41.251Z,76.4781
2023-04-02T05:31:42.795Z,76.3944
2023-04-02T05:32:44.367Z,76.3421
2023-04-02T05:33:45.866Z,76.2897
2023-04-02T05:34:47.343Z,76.1677
2023-04-02T05:35:48.867Z,76.1349
2023-04-02T05:36:50.356Z,76.1447
2023-04-02T05:37:51.809Z,76.1518
2023-04-02T05:38:53.277Z,76.1310
2023-04-02T05:39:54.792Z,76.1180
2023-04-02T05:40:56.275Z,76.1193
2023-04-02T05:41:57.761Z,76.1224
2023-04-02T05:42:59.197Z,76.1188
2023-04-02T05:44:00.665Z,76.0539
2023-04-02T05:45:02.134Z,75.9918
2023-04-02T05:46:03.804Z,75.9270
2023-04-02T05:47:05.244Z,75.8675
2023-04-02T05:48:06.748Z,75.8670
2023-04-02T05:49:08.183Z,75.8798
2023-04-02T05:50:09.663Z,75.8733
2023-04-02T05:51:11.094Z,75.8812
2023-04-02T05:52:12.556Z,75.8937
2023-04-02T05:53:14.095Z,75.9132
2023-04-02T05:54:15.563Z,75.8976
2023-04-02T05:55:17.386Z,75.8307
2023-04-02T05:56:18.813Z,75.8279
2023-04-02T05:57:20.270Z,75.8426
2023-04-02T05:58:35.573Z,75.8122
2023-04-02T05:59:21.738Z,75.7692
2023-04-02T06:00:23.180Z,75.6895
2023-04-02T06:01:24.620Z,75.6551
2023-04-02T06:02:26.086Z,75.6327
2023-04-02T06:03:27.745Z,75.5784
2023-04-02T06:04:29.223Z,75.5411
2023-04-02T06:05:30.641Z,75.4416
2023-04-02T06:06:32.075Z,75.3790
2023-04-02T06:07:33.516Z,75.3586
2023-04-02T06:08:35.057Z,75.3436
2023-04-02T06:09:36.519Z,75.3324
2023-04-02T06:10:37.972Z,75.3246
2023-04-02T06:11:39.417Z,75.3150
2023-04-02T06:12:40.922Z,75.3160
2023-04-02T06:13:42.406Z,75.3271
2023-04-02T06:14:43.935Z,75.3451
2023-04-02T06:15:47.247Z,75.3858
2023-04-02T06:16:46.801Z,75.4244
2023-04-02T06:17:48.301Z,75.4330
2023-04-02T06:18:49.789Z,75.4369
2023-04-02T06:19:51.251Z,75.4195
2023-04-02T06:20:52.720Z,75.3888
2023-04-02T06:21:54.124Z,75.3100
2023-04-02T06:22:55.623Z,75.2196
2023-04-02T06:23:57.102Z,75.1652
2023-04-02T06:24:58.543Z,75.1421
2023-04-02T06:26:00.013Z,75.1371
2023-04-02T06:27:01.491Z,75.1473
2023-04-02T06:28:02.982Z,75.1505
2023-04-02T06:29:04.465Z,75.1585
2023-04-02T06:30:05.917Z,75.1700
2023-04-02T06:31:07.552Z,75.1842
2023-04-02T06:32:08.992Z,75.1879
2023-04-02T06:33:10.521Z,75.1714
2023-04-02T06:34:12.000Z,75.0931
2023-04-02T06:35:13.442Z,74.9676
2023-04-02T06:36:14.878Z,74.8989
2023-04-02T06:37:16.252Z,74.8636
2023-04-02T06:38:17.745Z,74.7974
2023-04-02T06:39:19.184Z,74.7335
2023-04-02T06:40:20.640Z,74.6897
2023-04-02T06:41:22.861Z,74.6759
2023-04-02T06:42:24.331Z,74.6575
2023-04-02T06:43:25.780Z,74.6306
2023-04-02T06:44:27.254Z,74.6125
2023-04-02T06:45:28.681Z,74.6005
2023-04-02T06:46:30.172Z,74.5592
2023-04-02T06:47:31.704Z,74.4106
2023-04-02T06:48:33.280Z,74.2897
2023-04-02T06:49:34.701Z,74.1287
2023-04-02T06:50:36.168Z,73.7461
2023-04-02T06:51:37.609Z,73.1443
2023-04-02T06:52:39.072Z,72.7387
2023-04-02T06:53:40.517Z,72.6250
2023-04-02T06:54:41.948Z,72.5889
2023-04-02T06:55:43.422Z,72.5390
2023-04-02T06:56:44.779Z,72.5002
2023-04-02T06:57:46.244Z,72.4931
2023-04-02T06:58:47.709Z,72.5258
2023-04-02T06:59:49.132Z,72.5823
2023-04-02T07:00:50.513Z,72.6369
2023-04-02T07:01:51.998Z,72.6539
2023-04-02T07:02:55.152Z,72.5574
2023-04-02T07:03:58.447Z,72.4727
2023-04-02T07:05:00.864Z,72.4777
2023-04-02T07:06:02.273Z,72.4624
2023-04-02T07:07:03.734Z,72.2858
2023-04-02T07:08:05.208Z,71.9684
2023-04-02T07:09:07.641Z,71.7923
2023-04-02T07:10:09.172Z,71.7262
2023-04-02T07:11:10.649Z,71.3914
2023-04-02T07:12:12.062Z,71.1162
2023-04-02T07:13:13.533Z,71.0641
2023-04-02T07:14:15.002Z,71.2010
2023-04-02T07:15:16.586Z,71.2842
2023-04-02T07:16:18.093Z,71.1885
2023-04-02T07:17:19.640Z,71.1544
2023-04-02T07:18:21.198Z,71.1459
2023-04-02T07:19:22.769Z,71.0943
2023-04-02T07:20:24.238Z,70.9089
2023-04-02T07:21:25.683Z,70.8317
2023-04-02T07:22:27.091Z,70.8741
2023-04-02T07:23:28.560Z,70.8226
2023-04-02T07:24:30.030Z,70.7936
2023-04-02T07:25:31.487Z,70.7485
2023-04-02T07:26:32.932Z,70.6612
2023-04-02T07:27:34.379Z,70.4065
2023-04-02T07:28:35.859Z,70.2105
2023-04-02T07:29:37.271Z,70.1841
2023-04-02T07:30:38.688Z,70.1043
2023-04-02T07:31:40.230Z,69.9293
2023-04-02T07:32:41.674Z,69.8238
2023-04-02T07:33:43.081Z,69.8007
2023-04-02T07:34:44.485Z,69.7839
2023-04-02T07:35:46.028Z,69.7789
2023-04-02T07:36:47.441Z,69.7784
2023-04-02T07:37:48.894Z,69.6917
2023-04-02T07:38:50.303Z,69.5867
2023-04-02T07:39:51.809Z,69.6346
2023-04-02T07:40:53.238Z,69.7115
2023-04-02T07:41:54.568Z,69.6353
2023-04-02T07:42:56.038Z,69.4071
2023-04-02T07:43:57.524Z,69.1558
2023-04-02T07:44:58.926Z,69.0032
2023-04-02T07:46:00.339Z,68.7523
2023-04-02T07:47:01.834Z,68.5653
2023-04-02T07:48:03.495Z,68.4439
2023-04-02T07:49:05.010Z,68.4664
2023-04-02T07:50:06.491Z,68.4825
2023-04-02T07:51:07.919Z,68.5789
2023-04-02T07:52:09.373Z,68.5803
2023-04-02T07:53:10.786Z,68.4524
2023-04-02T07:54:12.254Z,68.4420
2023-04-02T07:55:13.672Z,68.6060
2023-04-02T07:56:15.104Z,68.6406
2023-04-02T07:57:16.556Z,68.7173
2023-04-02T07:58:17.975Z,68.2096
2023-04-02T07:59:19.442Z,67.5099
2023-04-02T08:00:20.860Z,67.1020
2023-04-02T08:01:22.279Z,66.5352
2023-04-02T08:02:23.703Z,66.5900
2023-04-02T08:03:25.318Z,66.8850
2023-04-02T08:04:26.845Z,66.8261
2023-04-02T08:05:28.331Z,66.6097
2023-04-02T08:06:29.776Z,66.3706
2023-04-02T08:07:31.229Z,66.4445
2023-04-02T08:08:32.685Z,66.3911
2023-04-02T08:09:34.123Z,66.0938
2023-04-02T08:10:35.639Z,65.9893
2023-04-02T08:11:37.154Z,65.9136
2023-04-02T08:12:38.678Z,65.9137
2023-04-02T08:13:40.131Z,66.0272
2023-04-02T08:14:41.639Z,66.1561
2023-04-02T08:15:43.028Z,66.1787
2023-04-02T08:16:44.586Z,66.2167
2023-04-02T08:17:46.029Z,66.3215
2023-04-02T08:18:47.473Z,66.4007
2023-04-02T08:19:55.130Z,66.2385
2023-04-02T08:20:49.011Z,65.9114
2023-04-02T08:21:50.466Z,65.8139
2023-04-02T08:22:51.945Z,65.6637
2023-04-02T08:23:53.371Z,65.7518
2023-04-02T08:24:54.912Z,66.1860
2023-04-02T08:25:56.366Z,66.4011
2023-04-02T08:26:57.847Z,66.2415
2023-04-02T08:27:59.292Z,66.2732
2023-04-02T08:29:00.853Z,66.5241
2023-04-02T08:30:02.316Z,66.8304
2023-04-02T08:31:03.853Z,67.1054
2023-04-02T08:32:05.276Z,67.0695
2023-04-02T08:33:06.768Z,67.1569
2023-04-02T08:34:08.195Z,66.7517
2023-04-02T08:35:09.731Z,66.6871
2023-04-02T08:36:11.304Z,66.6567
2023-04-02T08:37:12.733Z,66.3805
2023-04-02T08:38:14.140Z,66.0661
2023-04-02T08:39:15.586Z,65.9400
2023-04-02T08:40:17.023Z,66.0451
2023-04-02T08:41:18.571Z,65.9317
2023-04-02T08:42:19.984Z,66.0638
2023-04-02T08:43:23.109Z,66.2110
2023-04-02T08:44:22.973Z,66.3128
2023-04-02T08:45:25.595Z,66.4179
2023-04-02T08:46:24.918Z,66.3120
2023-04-02T08:47:26.420Z,66.0234
2023-04-02T08:48:27.841Z,65.9074
2023-04-02T08:49:29.322Z,65.6623
2023-04-02T08:50:30.861Z,65.4418
2023-04-02T08:51:32.302Z,65.5718
2023-04-02T08:52:33.740Z,65.4921
2023-04-02T08:53:35.206Z,65.4438
2023-04-02T08:54:36.676Z,65.2964
2023-04-02T08:55:38.240Z,65.2200
2023-04-02T08:56:39.737Z,65.4690
2023-04-02T08:57:41.182Z,65.4585
2023-04-02T08:58:42.610Z,65.4423
2023-04-02T08:59:44.107Z,65.4168
2023-04-02T09:00:45.562Z,65.4354
2023-04-02T09:01:47.031Z,65.5456
2023-04-02T09:02:48.480Z,65.3331
2023-04-02T09:03:49.916Z,64.9536
2023-04-02T09:04:51.439Z,64.8650
2023-04-02T09:05:52.933Z,64.9556
2023-04-02T09:06:54.369Z,65.2292
2023-04-02T09:07:55.811Z,65.4360
2023-04-02T09:08:57.267Z,65.5212
2023-04-02T09:09:58.836Z,65.5963
2023-04-02T09:11:00.306Z,65.7614
2023-04-02T09:12:01.803Z,65.9238
2023-04-02T09:13:03.198Z,65.8522
2023-04-02T09:14:04.747Z,65.7348
2023-04-02T09:15:06.214Z,65.1855
2023-04-02T09:16:07.792Z,64.8253
2023-04-02T09:17:09.251Z,65.0392
2023-04-02T09:18:10.741Z,65.3030
2023-04-02T09:19:12.166Z,65.1489
2023-04-02T09:20:13.661Z,65.0594
2023-04-02T09:21:15.112Z,64.6980
2023-04-02T09:22:16.593Z,64.4567
2023-04-02T09:23:18.044Z,64.3771
2023-04-02T09:24:19.523Z,64.2780
2023-04-02T09:25:21.021Z,64.2010
2023-04-02T09:26:22.460Z,64.3246
2023-04-02T09:27:23.893Z,64.5127
2023-04-02T09:28:25.341Z,64.7332
2023-04-02T09:29:26.769Z,64.2751
2023-04-02T09:30:28.257Z,63.9394
2023-04-02T09:31:29.705Z,63.8395
2023-04-02T09:32:31.165Z,64.0192
2023-04-02T09:33:32.536Z,63.9045
2023-04-02T09:34:34.159Z,63.8854
2023-04-02T09:35:35.597Z,64.0232
2023-04-02T09:36:37.051Z,63.9019
2023-04-02T09:37:38.464Z,63.5401
2023-04-02T09:38:39.955Z,63.0388
2023-04-02T09:39:41.430Z,62.5164
2023-04-02T09:40:43.097Z,62.4298
2023-04-02T09:41:48.186Z,62.8379
2023-04-02T09:42:44.590Z,62.9696
2023-04-02T09:43:46.046Z,62.7778
2023-04-02T09:44:47.516Z,62.4684
2023-04-02T09:45:49.282Z,62.2216
2023-04-02T09:46:50.764Z,61.6971
2023-04-02T09:47:52.240Z,61.8282
2023-04-02T09:48:53.703Z,61.8816
2023-04-02T09:49:55.149Z,61.6392
2023-04-02T09:50:56.639Z,61.7188
2023-04-02T09:51:58.732Z,61.8578
2023-04-02T09:53:00.212Z,61.7602
2023-04-02T09:54:01.681Z,61.3998
2023-04-02T09:55:03.137Z,61.0777
2023-04-02T09:56:04.617Z,61.1467
2023-04-02T09:57:06.120Z,61.2065
2023-04-02T09:58:07.575Z,61.2025
2023-04-02T09:59:09.025Z,61.4112
2023-04-02T10:00:18.371Z,61.2908
2023-04-02T10:01:10.586Z,61.4156
2023-04-02T10:02:12.024Z,61.5152
2023-04-02T10:03:13.478Z,61.4280
2023-04-02T10:04:14.951Z,60.9847
2023-04-02T10:05:23.549Z,60.6093
2023-04-02T10:06:15.550Z,60.4013
2023-04-02T10:07:16.970Z,60.4818
2023-04-02T10:08:18.446Z,60.6163
2023-04-02T10:09:19.915Z,60.6777
2023-04-02T10:10:21.406Z,60.4798
2023-04-02T10:11:22.973Z,60.0947
2023-04-02T10:12:24.930Z,60.1874
2023-04-02T10:13:26.364Z,60.3486
2023-04-02T10:14:27.829Z,60.3191
2023-04-02T10:15:29.222Z,60.1010
2023-04-02T10:16:30.708Z,59.7993
2023-04-02T10:17:32.178Z,59.6389
2023-04-02T10:18:33.722Z,59.4441
2023-04-02T10:19:35.179Z,59.1002
2023-04-02T10:20:48.597Z,59.2605
2023-04-02T10:21:36.653Z,59.3266
2023-04-02T10:22:38.117Z,59.4774
2023-04-02T10:23:39.591Z,59.6564
2023-04-02T10:24:41.052Z,59.3727
2023-04-02T10:25:42.508Z,59.2375
2023-04-02T10:26:43.990Z,58.9167
2023-04-02T10:27:45.402Z,58.2716
2023-04-02T10:28:46.895Z,58.0308
2023-04-02T10:29:48.331Z,58.1087
2023-04-02T10:30:49.814Z,58.0661
2023-04-02T10:31:51.231Z,57.7302
2023-04-02T10:32:52.728Z,57.0563
2023-04-02T10:33:54.189Z,56.5050
2023-04-02T10:34:55.622Z,56.4952
2023-04-02T10:35:57.123Z,56.7055
2023-04-02T10:36:58.541Z,56.5565
2023-04-02T10:37:59.994Z,56.3822
2023-04-02T10:39:01.414Z,56.4892
2023-04-02T10:40:02.845Z,56.7271
2023-04-02T10:41:04.324Z,56.6548
2023-04-02T10:42:05.723Z,56.5485
2023-04-02T10:43:07.181Z,56.4621
2023-04-02T10:44:18.998Z,56.1757
2023-04-02T10:45:08.707Z,56.3688
2023-04-02T10:46:10.205Z,56.5206
2023-04-02T10:47:11.737Z,56.1592
2023-04-02T10:48:13.192Z,55.6322
2023-04-02T10:49:14.672Z,55.5183
2023-04-02T10:50:16.100Z,55.3768
2023-04-02T10:51:17.596Z,55.4009
2023-04-02T10:52:19.038Z,55.4832
2023-04-02T10:53:20.485Z,55.3652
2023-04-02T10:54:21.899Z,55.2243
2023-04-02T10:55:23.366Z,55.2582
2023-04-02T10:56:24.832Z,54.9378
2023-04-02T10:57:26.304Z,53.7026
2023-04-02T10:58:27.739Z,53.2720
2023-04-02T10:59:29.194Z,53.4786
2023-04-02T11:00:30.655Z,53.5550
2023-04-02T11:01:32.156Z,53.2316
2023-04-02T11:02:33.594Z,52.9475
2023-04-02T11:03:35.197Z,53.0956
2023-04-02T11:04:36.675Z,53.2213
2023-04-02T11:05:38.158Z,52.9291
2023-04-02T11:06:39.586Z,52.6965
2023-04-02T11:07:41.021Z,52.6445
2023-04-02T11:08:42.417Z,52.7265
2023-04-02T11:09:43.896Z,52.2326
2023-04-02T11:10:45.343Z,52.7898
2023-04-02T11:11:46.789Z,53.5071
2023-04-02T11:12:48.199Z,52.9240
2023-04-02T11:13:49.657Z,52.8311
2023-04-02T11:14:51.114Z,53.0972
2023-04-02T11:15:52.579Z,53.3545
2023-04-02T11:16:54.038Z,53.5558
2023-04-02T11:17:55.513Z,52.6945
2023-04-02T11:18:56.954Z,52.0270
2023-04-02T11:19:58.377Z,52.3921
2023-04-02T11:20:59.834Z,52.6313
2023-04-02T11:22:03.113Z,52.3165
2023-04-02T11:23:01.818Z,52.4705
2023-04-02T11:24:03.218Z,52.7568
2023-04-02T11:25:04.672Z,52.9010
2023-04-02T11:26:06.115Z,52.7136
2023-04-02T11:27:07.650Z,52.6552
2023-04-02T11:28:09.073Z,52.6898
2023-04-02T11:29:10.532Z,52.9054
2023-04-02T11:30:11.972Z,53.0061
2023-04-02T11:31:13.406Z,52.9539
2023-04-02T11:32:14.818Z,52.9710
2023-04-02T11:33:18.692Z,52.7699
2023-04-02T11:34:17.554Z,51.5563
2023-04-02T11:35:19.012Z,51.6446
2023-04-02T11:36:20.420Z,51.6208
2023-04-02T11:37:21.911Z,51.6417
2023-04-02T11:38:23.294Z,51.7559
2023-04-02T11:39:24.726Z,51.5190
2023-04-02T11:40:26.154Z,51.5601
2023-04-02T11:41:27.576Z,51.6344
2023-04-02T11:42:29.023Z,51.5027
2023-04-02T11:43:30.455Z,51.2990
2023-04-02T11:44:31.838Z,50.6673
2023-04-02T11:45:40.167Z,50.3948
2023-04-02T11:46:33.221Z,49.5048
2023-04-02T11:47:34.660Z,49.2022
2023-04-02T11:48:36.273Z,48.4958
2023-04-02T11:49:37.788Z,47.6610
2023-04-02T11:50:38.255Z,47.3745
2023-04-02T11:51:39.762Z,47.4133
2023-04-02T11:52:41.272Z,47.3048
2023-04-02T11:53:42.649Z,47.2027
2023-04-02T11:54:44.074Z,46.8399
2023-04-02T11:55:45.418Z,46.5080
2023-04-02T11:56:46.793Z,46.3715
2023-04-02T11:57:48.176Z,45.8730
2023-04-02T11:58:49.527Z,46.1643
2023-04-02T11:59:50.863Z,46.4588
2023-04-02T12:00:52.267Z,46.2193
2023-04-02T12:01:53.633Z,45.9610
2023-04-02T12:02:55.016Z,45.4789
2023-04-02T12:03:56.396Z,44.4893
2023-04-02T12:04:57.721Z,43.7194
2023-04-02T12:05:59.082Z,44.0395
2023-04-02T12:07:00.463Z,43.6791
2023-04-02T12:08:01.830Z,43.2762
2023-04-02T12:09:03.271Z,43.7290
2023-04-02T12:10:04.639Z,44.1505
2023-04-02T12:11:06.016Z,44.8099
2023-04-02T12:12:07.398Z,45.2796
2023-04-02T12:13:08.795Z,45.6224
2023-04-02T12:14:10.177Z,45.8296
2023-04-02T12:15:10.165Z,45.8680
2023-04-02T12:16:11.558Z,45.9801
2023-04-02T12:17:13.091Z,46.2337
2023-04-02T12:18:14.583Z,46.4331
2023-04-02T12:19:15.968Z,46.6490
2023-04-02T12:20:17.386Z,46.6474
2023-04-02T12:21:18.795Z,46.4633
2023-04-02T12:22:20.344Z,46.2403
2023-04-02T12:23:21.745Z,45.7708